Time;durP1;ratioP1;P1;durP2;ratioP2;P2;SDS_P1;SDS_P2;PMS_P1;PMS_P2;Temp;Humidity;BMP_temperature;BMP_pressure;BME280_temperature;BME280_humidity;BME280_pressure;Samples;Min_cycle;Max_cycle;Signal;HPM_P1;HPM_P2
2022/03/24 00:01:21;;;;;;;;;;;;;;;22.06;40.62;102766.47;7275777;19;153339;-66
2022/03/24 00:03:48;;;;;;;;;;;;;;;22.03;40.88;102772.66;7274769;19;152652;-67
2022/03/24 00:06:15;;;;;;;;;;;;;;;22.03;40.57;102765.03;7276334;19;151687;-67
2022/03/24 00:08:42;;;;;;;;;;;;;;;22.04;40.98;102769.56;7276064;19;153681;-64
2022/03/24 00:11:09;;;;;;;;;;;;;;;22.01;40.70;102772.94;7272942;19;152829;-66
2022/03/24 00:13:36;;;;;;;;;;;;;;;22.02;40.92;102769.00;7283721;19;152558;-65
2022/03/24 00:16:04;;;;;;;;;;;;;;;22.02;41.01;102762.53;7270831;19;152164;-66
2022/03/24 00:18:32;;;;;;;;;;;;;;;22.01;40.98;102766.47;7278674;19;151845;-68
2022/03/24 00:20:59;;;;;;;;;;;;;;;22.01;40.68;102761.69;7275949;19;151630;-68
2022/03/24 00:23:26;;;;;;;;;;;;;;;22.01;40.70;102764.50;7276891;19;152697;-67
2022/03/24 00:25:53;;;;;;;;;;;;;;;21.99;40.67;102760.25;7277926;19;152116;-68
2022/03/24 00:28:20;;;;;;;;;;;;;;;21.99;40.87;102765.88;7276108;19;153538;-70
2022/03/24 00:30:47;;;;;;;;;;;;;;;21.98;41.10;102764.19;7274341;19;156006;-68
2022/03/24 00:33:14;;;;;;;;;;;;;;;21.97;40.84;102762.50;7275652;19;151938;-63
2022/03/24 00:35:41;;;;;;;;;;;;;;;21.97;41.02;102766.16;7279266;19;152712;-64
2022/03/24 00:38:08;;;;;;;;;;;;;;;21.91;41.19;102753.16;7274605;19;152669;-67
2022/03/24 00:40:35;;;;;;;;;;;;;;;21.96;40.98;102758.00;7274558;19;152568;-66
2022/03/24 00:43:02;;;;;;;;;;;;;;;21.91;41.05;102755.97;7276423;19;154169;-66
2022/03/24 00:45:29;;;;;;;;;;;;;;;21.91;41.10;102755.97;7275722;19;151871;-68
2022/03/24 00:47:56;;;;;;;;;;;;;;;21.89;40.82;102746.13;7275082;19;152779;-65
2022/03/24 00:50:23;;;;;;;;;;;;;;;21.86;41.02;102750.31;7272382;19;155239;-68
2022/03/24 00:52:50;;;;;;;;;;;;;;;21.83;41.50;102744.38;7275395;19;151857;-64
2022/03/24 00:55:18;;;;;;;;;;;;;;;21.86;41.17;102750.31;7278297;19;153446;-68
2022/03/24 00:57:49;;;;;;;;;;;;;;;21.86;41.52;102746.63;7287460;19;153599;-66
2022/03/24 01:00:17;;;;;;;;;;;;;;;21.84;41.69;102741.31;7279875;19;154255;-66
2022/03/24 01:02:45;;;;;;;;;;;;;;;21.84;41.48;102737.63;7279602;19;156627;-68
2022/03/24 01:05:15;;;;;;;;;;;;;;;21.79;41.27;102738.47;7280543;19;152242;-70
2022/03/24 01:07:43;;;;;;;;;;;;;;;21.83;41.78;102741.56;7280668;19;152925;-71
2022/03/24 01:10:11;;;;;;;;;;;;;;;21.82;41.71;102739.88;7280038;19;154235;-64
2022/03/24 01:12:41;;;;;;;;;;;;;;;21.78;41.42;102739.56;7278783;19;152344;-62
2022/03/24 01:15:09;;;;;;;;;;;;;;;21.76;41.35;102730.53;7279089;19;152333;-63
2022/03/24 01:17:37;;;;;;;;;;;;;;;21.74;41.46;102739.28;7287106;19;152116;-67
2022/03/24 01:20:04;;;;;;;;;;;;;;;21.78;42.14;102733.09;7280492;19;152663;-68
2022/03/24 01:22:32;;;;;;;;;;;;;;;21.77;41.73;102740.69;7279345;19;152450;-65
2022/03/24 01:24:59;;;;;;;;;;;;;;;21.78;42.22;102738.72;7282507;19;152063;-71
2022/03/24 01:27:28;;;;;;;;;;;;;;;21.75;42.15;102737.31;7280418;19;152566;-64
2022/03/24 01:29:56;;;;;;;;;;;;;;;21.76;41.76;102739.00;7277439;19;153915;-63
2022/03/24 01:32:24;;;;;;;;;;;;;;;21.75;42.17;102737.31;7280085;19;151999;-67
2022/03/24 01:34:51;;;;;;;;;;;;;;;21.73;42.16;102736.72;7280926;19;152066;-67
2022/03/24 01:37:18;;;;;;;;;;;;;;;21.70;42.01;102738.13;7279694;19;154461;-64
2022/03/24 01:39:45;;;;;;;;;;;;;;;21.72;42.34;102738.69;7286193;19;152202;-66
2022/03/24 01:42:13;;;;;;;;;;;;;;;21.71;42.49;102731.38;7278891;19;154227;-66
2022/03/24 01:44:40;;;;;;;;;;;;;;;21.72;42.50;102735.03;7280044;19;152018;-64
2022/03/24 01:47:10;;;;;;;;;;;;;;;21.71;42.65;102728.56;7282694;19;153083;-63
2022/03/24 01:49:38;;;;;;;;;;;;;;;21.69;42.49;102729.97;7278165;19;153515;-64
2022/03/24 01:52:07;;;;;;;;;;;;;;;21.69;42.40;102728.00;7279529;19;152268;-62
2022/03/24 01:54:36;;;;;;;;;;;;;;;21.65;42.35;102721.22;7279578;19;153542;-67
2022/03/24 01:57:04;;;;;;;;;;;;;;;21.67;42.16;102726.56;7278189;19;155945;-67
2022/03/24 01:59:31;;;;;;;;;;;;;;;21.66;42.15;102724.88;7279437;19;151853;-66
2022/03/24 02:01:58;;;;;;;;;;;;;;;21.64;42.40;102721.50;7284762;19;151917;-64
2022/03/24 02:04:25;;;;;;;;;;;;;;;21.63;42.54;102719.78;7278589;19;152310;-66
2022/03/24 02:06:52;;;;;;;;;;;;;;;21.66;42.03;102719.25;7279188;19;153222;-66
2022/03/24 02:09:19;;;;;;;;;;;;;;;21.63;42.51;102720.63;7276852;19;155687;-65
2022/03/24 02:11:46;;;;;;;;;;;;;;;21.61;42.38;102714.47;7278815;19;151795;-64
2022/03/24 02:14:14;;;;;;;;;;;;;;;21.60;42.77;102718.38;7276751;19;152323;-64
2022/03/24 02:16:41;;;;;;;;;;;;;;;21.59;42.28;102715.81;7275670;19;154168;-64
2022/03/24 02:19:10;;;;;;;;;;;;;;;21.61;42.80;102710.78;7278468;19;151905;-70
2022/03/24 02:21:38;;;;;;;;;;;;;;;21.60;42.63;102707.13;7278521;19;155143;-65
2022/03/24 02:24:06;;;;;;;;;;;;;;;21.55;42.79;102704.28;7285460;19;153350;-67
2022/03/24 02:26:35;;;;;;;;;;;;;;;21.53;42.51;102708.50;7278643;19;153215;-67
2022/03/24 02:29:06;;;;;;;;;;;;;;;21.51;42.82;102705.94;7275441;19;153269;-69
2022/03/24 02:31:38;;;;;;;;;;;;;;;21.54;42.67;102707.34;7278359;19;152167;-66
2022/03/24 02:36:43;;;;;;;;;;;;;;;21.49;43.31;102699.75;7275448;19;153454;-69
2022/03/24 02:39:10;;;;;;;;;;;;;;;21.48;43.02;102709.31;7279461;19;151626;-65
2022/03/24 02:41:47;;;;;;;;;;;;;;;21.49;43.20;102698.88;7278874;19;152945;-68
2022/03/24 02:44:17;;;;;;;;;;;;;;;21.48;43.59;102706.50;7276578;19;153880;-64
2022/03/24 02:46:47;;;;;;;;;;;;;;;21.49;43.39;102708.19;7285318;19;152424;-65
2022/03/24 02:49:15;;;;;;;;;;;;;;;21.46;43.30;102693.81;7276949;19;153621;-65
2022/03/24 02:51:42;;;;;;;;;;;;;;;21.47;43.77;102702.00;7278080;19;151925;-69
2022/03/24 02:54:09;;;;;;;;;;;;;;;21.44;43.50;102699.69;7277621;19;152626;-66
2022/03/24 02:56:37;;;;;;;;;;;;;;;21.42;43.69;102693.53;7274337;19;152614;-64
2022/03/24 02:59:06;;;;;;;;;;;;;;;21.43;43.84;102700.84;7277304;19;151695;-65
2022/03/24 03:01:34;;;;;;;;;;;;;;;21.40;43.96;102701.38;7277158;19;152793;-64
2022/03/24 03:04:02;;;;;;;;;;;;;;;21.42;43.73;102701.97;7276079;19;155281;-63
2022/03/24 03:06:29;;;;;;;;;;;;;;;21.40;43.93;102700.53;7276988;19;153477;-67
2022/03/24 03:08:56;;;;;;;;;;;;;;;21.41;43.97;102699.41;7282934;19;152672;-66
2022/03/24 03:11:23;;;;;;;;;;;;;;;21.35;43.99;102692.91;7274892;19;151707;-63
2022/03/24 03:13:52;;;;;;;;;;;;;;;21.39;43.98;102701.66;7277714;19;153443;-63
2022/03/24 03:16:19;;;;;;;;;;;;;;;21.36;44.03;102702.19;7272517;19;153392;-65
2022/03/24 03:18:46;;;;;;;;;;;;;;;21.36;43.95;102691.78;7279753;19;151980;-67
2022/03/24 03:21:13;;;;;;;;;;;;;;;21.34;44.22;102694.03;7279413;19;153741;-67
2022/03/24 03:23:39;;;;;;;;;;;;;;;21.34;44.03;102694.03;7278116;19;153434;-66
2022/03/24 03:26:07;;;;;;;;;;;;;;;21.36;44.28;102691.78;7276096;19;152216;-69
2022/03/24 03:28:34;;;;;;;;;;;;;;;21.33;43.98;102689.53;7285807;19;153023;-65
2022/03/24 03:31:01;;;;;;;;;;;;;;;21.32;44.38;102685.00;7275278;19;151790;-63
2022/03/24 03:33:29;;;;;;;;;;;;;;;21.28;44.12;102689.50;7276697;19;153000;-63
2022/03/24 03:35:55;;;;;;;;;;;;;;;21.30;44.60;102690.91;7273670;19;153614;-66
2022/03/24 03:38:22;;;;;;;;;;;;;;;21.29;44.50;102686.41;7276500;19;151968;-68
2022/03/24 03:40:49;;;;;;;;;;;;;;;21.27;44.03;102693.41;7274958;19;154115;-68
2022/03/24 03:43:16;;;;;;;;;;;;;;;21.26;44.18;102697.34;7275592;19;153350;-67
2022/03/24 03:45:45;;;;;;;;;;;;;;;21.24;44.35;102693.97;7275830;19;152041;-63
2022/03/24 03:48:12;;;;;;;;;;;;;;;21.21;44.16;102692.53;7275480;19;153224;-66
2022/03/24 03:50:41;;;;;;;;;;;;;;;21.24;44.21;102694.81;7281900;19;154083;-64
2022/03/24 03:53:08;;;;;;;;;;;;;;;21.23;43.92;102695.06;7276189;19;152900;-69
2022/03/24 03:55:36;;;;;;;;;;;;;;;21.25;44.08;102701.28;7274613;19;153352;-70
2022/03/24 03:58:03;;;;;;;;;;;;;;;21.19;44.40;102702.38;7275709;19;152380;-68
2022/03/24 04:03:07;;;;;;;;;;;;;;;21.17;44.20;102705.44;7276504;19;153637;-67
2022/03/24 04:05:34;;;;;;;;;;;;;;;21.15;44.30;102707.69;7276048;19;152036;-66
2022/03/24 04:08:01;;;;;;;;;;;;;;;21.15;44.30;102704.88;7275470;19;152715;-64
2022/03/24 04:10:29;;;;;;;;;;;;;;;21.16;44.20;102702.91;7274290;19;154444;-65
2022/03/24 04:12:57;;;;;;;;;;;;;;;21.15;44.13;102706.84;7279693;19;152073;-65
2022/03/24 04:15:24;;;;;;;;;;;;;;;21.17;44.26;102704.59;7276746;19;153663;-63
2022/03/24 04:17:51;;;;;;;;;;;;;;;21.15;43.67;102701.22;7273493;19;152062;-69
2022/03/24 04:20:20;;;;;;;;;;;;;;;21.13;43.79;102703.44;7275605;19;153272;-68
2022/03/24 04:22:48;;;;;;;;;;;;;;;21.14;44.09;102699.50;7274419;19;153148;-64
2022/03/24 04:25:15;;;;;;;;;;;;;;;21.11;43.75;102705.66;7273734;19;152238;-66
2022/03/24 04:27:42;;;;;;;;;;;;;;;21.10;43.83;102698.31;7276862;19;152820;-66
2022/03/24 04:30:11;;;;;;;;;;;;;;;21.09;44.05;102696.63;7279475;19;153527;-66
2022/03/24 04:32:38;;;;;;;;;;;;;;;21.08;43.67;102706.16;7282366;19;151896;-66
2022/03/24 04:35:06;;;;;;;;;;;;;;;21.09;43.86;102705.06;7287991;19;152821;-66
2022/03/24 04:37:33;;;;;;;;;;;;;;;21.10;43.65;102702.00;7279961;19;152059;-68
2022/03/24 04:40:00;;;;;;;;;;;;;;;21.05;43.73;102698.28;7280523;19;152715;-66
2022/03/24 04:42:27;;;;;;;;;;;;;;;21.04;43.96;102700.25;7280457;19;152260;-65
2022/03/24 04:44:54;;;;;;;;;;;;;;;21.04;43.73;102697.44;7279481;19;153366;-65
2022/03/24 04:47:21;;;;;;;;;;;;;;;21.06;43.70;102698.03;7282315;19;155205;-64
2022/03/24 04:49:48;;;;;;;;;;;;;;;21.06;43.52;102697.19;7279167;19;153270;-66
2022/03/24 04:52:16;;;;;;;;;;;;;;;21.04;43.55;102694.63;7281419;19;153537;-64
2022/03/24 04:54:43;;;;;;;;;;;;;;;21.00;44.03;102695.44;7280181;19;151744;-66
2022/03/24 04:57:10;;;;;;;;;;;;;;;21.02;44.00;102696.88;7286185;19;153946;-64
2022/03/24 04:59:37;;;;;;;;;;;;;;;21.01;43.85;102685.91;7279791;19;153228;-63
2022/03/24 05:02:04;;;;;;;;;;;;;;;21.00;43.92;102690.66;7280270;19;153332;-63
2022/03/24 05:04:31;;;;;;;;;;;;;;;21.02;44.18;102696.03;7282144;19;152005;-63
2022/03/24 05:07:00;;;;;;;;;;;;;;;21.03;44.03;102697.72;7280880;19;152777;-66
2022/03/24 05:09:27;;;;;;;;;;;;;;;21.02;44.03;102698.84;7279265;19;155588;-62
2022/03/24 05:11:54;;;;;;;;;;;;;;;21.02;43.74;102696.03;7278768;19;151808;-64
2022/03/24 05:14:21;;;;;;;;;;;;;;;21.02;43.83;102696.03;7280658;19;154694;-66
2022/03/24 05:16:48;;;;;;;;;;;;;;;21.00;43.88;102699.09;7277812;19;154143;-63
2022/03/24 05:19:15;;;;;;;;;;;;;;;21.01;44.17;102699.94;7288036;19;151839;-65
2022/03/24 05:21:42;;;;;;;;;;;;;;;21.02;44.13;102694.06;7278923;19;154077;-64
2022/03/24 05:24:09;;;;;;;;;;;;;;;20.99;43.62;102700.19;7280394;19;151577;-66
2022/03/24 05:26:37;;;;;;;;;;;;;;;21.01;43.69;102697.13;7279876;19;154066;-63
2022/03/24 05:29:04;;;;;;;;;;;;;;;21.00;43.98;102696.28;7278143;19;152191;-61
2022/03/24 05:31:31;;;;;;;;;;;;;;;20.97;44.13;102701.59;7280230;19;152100;-63
2022/03/24 05:33:58;;;;;;;;;;;;;;;20.99;44.15;102702.16;7280749;19;154973;-63
2022/03/24 05:36:25;;;;;;;;;;;;;;;20.91;44.34;102700.72;7278761;19;153424;-69
2022/03/24 05:38:55;;;;;;;;;;;;;;;20.95;44.22;102704.66;7289510;19;152195;-68
2022/03/24 05:41:21;;;;;;;;;;;;;;;20.96;44.24;102709.19;7277349;19;154207;-69
2022/03/24 05:46:24;;;;;;;;;;;;;;;20.94;44.22;102710.59;7279094;19;153416;-65
2022/03/24 05:48:51;;;;;;;;;;;;;;;20.96;44.22;102702.72;7281155;19;154805;-64
2022/03/24 05:51:18;;;;;;;;;;;;;;;20.97;44.19;102708.06;7281658;19;152075;-68
2022/03/24 05:53:45;;;;;;;;;;;;;;;20.96;44.83;102709.19;7279948;19;155330;-62
2022/03/24 05:56:12;;;;;;;;;;;;;;;20.99;44.65;102704.97;7278329;19;155629;-65
2022/03/24 05:58:39;;;;;;;;;;;;;;;21.01;45.10;102703.59;7278626;19;152449;-66
2022/03/24 06:01:07;;;;;;;;;;;;;;;21.07;45.25;102712.94;7287687;19;152342;-66
2022/03/24 06:03:35;;;;;;;;;;;;;;;21.10;45.13;102704.81;7280825;19;152324;-65
2022/03/24 06:06:03;;;;;;;;;;;;;;;21.16;45.39;102708.53;7278937;19;153492;-64
2022/03/24 06:08:30;;;;;;;;;;;;;;;21.21;45.56;102715.03;7279796;19;153484;-63
2022/03/24 06:11:00;;;;;;;;;;;;;;;21.30;45.37;102712.56;7278319;19;151716;-64
2022/03/24 06:13:28;;;;;;;;;;;;;;;21.37;45.58;102715.97;7275532;19;153971;-67
2022/03/24 06:15:55;;;;;;;;;;;;;;;21.46;45.22;102716.31;7277035;19;152447;-66
2022/03/24 06:18:22;;;;;;;;;;;;;;;21.53;45.03;102716.94;7276409;19;151974;-67
2022/03/24 06:20:49;;;;;;;;;;;;;;;21.61;44.61;102717.28;7279848;19;153263;-66
2022/03/24 06:23:17;;;;;;;;;;;;;;;21.68;44.85;102722.63;7285331;19;156462;-66
2022/03/24 06:25:44;;;;;;;;;;;;;;;21.76;44.47;102724.09;7279697;19;154614;-65
2022/03/24 06:28:11;;;;;;;;;;;;;;;21.82;44.65;102728.59;7277777;19;153401;-67
2022/03/24 06:30:38;;;;;;;;;;;;;;;21.90;44.92;102728.09;7279579;19;152095;-67
2022/03/24 06:33:05;;;;;;;;;;;;;;;21.97;44.97;102732.38;7281262;19;152955;-63
2022/03/24 06:35:31;;;;;;;;;;;;;;;22.03;44.73;102730.44;7276869;19;152611;-62
2022/03/24 06:37:58;;;;;;;;;;;;;;;22.08;43.90;102722.84;7278814;19;152039;-63
2022/03/24 06:40:25;;;;;;;;;;;;;;;22.15;44.25;102729.09;7277558;19;153194;-65
2022/03/24 06:42:54;;;;;;;;;;;;;;;22.22;43.69;102734.44;7277842;19;154275;-63
2022/03/24 06:45:21;;;;;;;;;;;;;;;22.28;43.75;102727.72;7285779;19;152094;-64
2022/03/24 06:47:49;;;;;;;;;;;;;;;22.34;43.77;102737.88;7278720;19;153497;-64
2022/03/24 06:50:16;;;;;;;;;;;;;;;22.40;43.59;102733.94;7278399;19;151918;-67
2022/03/24 06:52:43;;;;;;;;;;;;;;;22.47;43.00;102730.84;7277020;19;152751;-65
2022/03/24 06:55:12;;;;;;;;;;;;;;;22.52;43.17;102730.88;7277853;19;154127;-67
2022/03/24 06:57:40;;;;;;;;;;;;;;;22.58;42.86;102736.22;7276806;19;152071;-64
2022/03/24 07:00:08;;;;;;;;;;;;;;;22.65;42.67;102729.47;7277360;19;152076;-66
2022/03/24 07:02:35;;;;;;;;;;;;;;;22.71;42.79;102728.41;7276790;19;155386;-66
2022/03/24 07:05:02;;;;;;;;;;;;;;;22.76;42.84;102732.03;7277940;19;151693;-70
2022/03/24 07:07:29;;;;;;;;;;;;;;;22.80;42.63;102730.38;7287063;19;152859;-69
2022/03/24 07:09:56;;;;;;;;;;;;;;;22.88;42.09;102734.63;7278812;19;153522;-66
2022/03/24 07:12:23;;;;;;;;;;;;;;;22.93;42.39;102731.78;7275850;19;153906;-66
2022/03/24 07:14:50;;;;;;;;;;;;;;;22.97;42.32;102736.59;7276052;19;153361;-66
2022/03/24 07:17:19;;;;;;;;;;;;;;;23.02;42.38;102738.56;7276191;19;152039;-65
2022/03/24 07:19:46;;;;;;;;;;;;;;;23.07;42.28;102743.34;7277841;19;153550;-68
2022/03/24 07:22:13;;;;;;;;;;;;;;;23.08;41.59;102736.59;7275684;19;154597;-68
2022/03/24 07:24:40;;;;;;;;;;;;;;;23.10;40.81;102740.81;7278035;19;151911;-66
2022/03/24 07:27:07;;;;;;;;;;;;;;;23.13;40.62;102740.25;7280061;19;154495;-67
2022/03/24 07:29:34;;;;;;;;;;;;;;;23.16;40.72;102750.13;7284925;19;151760;-65
2022/03/24 07:32:01;;;;;;;;;;;;;;;23.16;40.46;102744.47;7277239;19;153882;-66
2022/03/24 07:34:28;;;;;;;;;;;;;;;23.17;40.22;102747.00;7277457;19;154594;-67
2022/03/24 07:36:56;;;;;;;;;;;;;;;23.17;39.86;102747.00;7279043;19;152022;-66
2022/03/24 07:39:23;;;;;;;;;;;;;;;22.91;37.29;102750.94;7277718;19;154636;-64
2022/03/24 07:41:50;;;;;;;;;;;;;;;22.90;37.76;102757.72;7275401;19;154680;-66
2022/03/24 07:44:17;;;;;;;;;;;;;;;22.93;37.71;102763.66;7277761;19;152232;-69
2022/03/24 07:46:44;;;;;;;;;;;;;;;22.95;37.50;102750.09;7277280;19;153362;-68
2022/03/24 07:49:11;;;;;;;;;;;;;;;22.93;37.51;102755.19;7283914;19;152886;-67
2022/03/24 07:51:38;;;;;;;;;;;;;;;22.94;37.57;102756.88;7278316;19;152655;-70
2022/03/24 07:54:08;;;;;;;;;;;;;;;22.91;37.55;102754.63;7277506;19;153960;-67
2022/03/24 07:56:35;;;;;;;;;;;;;;;22.89;37.59;102761.69;7279761;19;151712;-64
2022/03/24 07:59:04;;;;;;;;;;;;;;;22.86;37.69;102756.59;7276652;19;153719;-65
2022/03/24 08:01:32;;;;;;;;;;;;;;;22.84;37.55;102761.66;7278140;19;153894;-67
2022/03/24 08:04:01;;;;;;;;;;;;;;;22.82;37.53;102763.91;7277088;19;152619;-66
2022/03/24 08:06:29;;;;;;;;;;;;;;;22.78;37.63;102760.81;7277160;19;152307;-67
2022/03/24 08:08:56;;;;;;;;;;;;;;;22.75;37.46;102764.19;7278215;19;155102;-66
2022/03/24 08:11:25;;;;;;;;;;;;;;;22.73;37.60;102772.06;7283386;19;152511;-68
2022/03/24 08:13:54;;;;;;;;;;;;;;;22.65;38.10;102772.59;7275560;19;152728;-65
2022/03/24 08:16:32;;;;;;;;;;;;;;;22.70;37.83;102768.97;7275916;19;151634;-66
2022/03/24 08:19:03;;;;;;;;;;;;;;;22.71;38.62;102773.50;7273366;19;155394;-70
2022/03/24 08:21:31;;;;;;;;;;;;;;;22.68;38.08;102772.03;7276066;19;154185;-72
2022/03/24 08:24:01;;;;;;;;;;;;;;;22.64;38.22;102776.53;7278022;19;151856;-73
2022/03/24 08:26:28;;;;;;;;;;;;;;;22.60;38.27;102772.59;7275172;19;152748;-66
2022/03/24 08:29:04;;;;;;;;;;;;;;;22.59;38.04;102780.19;7277013;19;154181;-64
2022/03/24 08:31:34;;;;;;;;;;;;;;;22.57;38.19;102781.59;7270788;19;151928;-66
2022/03/24 08:34:03;;;;;;;;;;;;;;;22.54;38.33;102779.31;7280131;19;152570;-64
2022/03/24 08:36:30;;;;;;;;;;;;;;;22.52;37.89;102776.78;7274308;19;151895;-62
2022/03/24 08:38:59;;;;;;;;;;;;;;;22.47;38.05;102775.94;7272441;19;152958;-68
2022/03/24 08:41:26;;;;;;;;;;;;;;;22.45;37.48;102780.97;7274753;19;153338;-67
2022/03/24 08:43:53;;;;;;;;;;;;;;;22.40;37.46;102780.97;7277708;19;152170;-66
2022/03/24 08:46:24;;;;;;;;;;;;;;;22.37;37.71;102788.00;7277325;19;153530;-65
2022/03/24 08:48:52;;;;;;;;;;;;;;;22.32;37.70;102782.34;7276444;19;152571;-66
2022/03/24 08:51:19;;;;;;;;;;;;;;;22.32;37.81;102787.13;7275239;19;151962;-63
2022/03/24 08:53:47;;;;;;;;;;;;;;;22.27;37.34;102787.09;7278017;19;153420;-67
2022/03/24 08:56:15;;;;;;;;;;;;;;;22.25;37.48;102784.59;7284055;19;154066;-66
2022/03/24 08:58:43;;;;;;;;;;;;;;;22.24;37.75;102784.84;7274095;19;153414;-66
2022/03/24 09:01:11;;;;;;;;;;;;;;;22.20;37.53;102784.56;7273888;19;153172;-67
2022/03/24 09:03:39;;;;;;;;;;;;;;;22.17;37.94;102791.56;7275960;19;151640;-64
2022/03/24 09:06:07;;;;;;;;;;;;;;;22.16;37.50;102791.88;7274966;19;153873;-64
2022/03/24 09:08:34;;;;;;;;;;;;;;;22.14;37.69;102785.66;7274004;19;154024;-66
2022/03/24 09:11:02;;;;;;;;;;;;;;;22.12;37.60;102788.72;7274624;19;152414;-67
2022/03/24 09:13:30;;;;;;;;;;;;;;;22.11;37.31;102794.66;7274979;19;152269;-63
2022/03/24 09:15:59;;;;;;;;;;;;;;;22.07;37.46;102791.56;7278984;19;152751;-68
2022/03/24 09:18:26;;;;;;;;;;;;;;;22.07;37.76;102797.19;7288873;19;152319;-66
2022/03/24 09:20:53;;;;;;;;;;;;;;;22.05;37.74;102796.59;7281034;19;152792;-67
2022/03/24 09:23:24;;;;;;;;;;;;;;;22.04;37.70;102794.03;7281902;19;151899;-66
2022/03/24 09:25:51;;;;;;;;;;;;;;;22.05;37.58;102790.97;7281383;19;152652;-65
2022/03/24 09:28:38;;;;;;;;;;;;;;;22.03;37.40;102793.19;7280967;19;157812;-63
2022/03/24 09:31:05;;;;;;;;;;;;;;;22.00;37.62;102795.72;7283038;19;151565;-64
2022/03/24 09:33:32;;;;;;;;;;;;;;;21.99;37.41;102791.19;7280520;19;153340;-67
2022/03/24 09:35:59;;;;;;;;;;;;;;;21.96;37.73;102792.63;7280010;19;154139;-65
2022/03/24 09:38:26;;;;;;;;;;;;;;;21.95;37.47;102796.53;7288235;19;152013;-65
2022/03/24 09:40:53;;;;;;;;;;;;;;;21.96;37.53;102795.44;7278836;19;153511;-66
2022/03/24 09:43:22;;;;;;;;;;;;;;;21.95;37.57;102793.72;7280931;19;152112;-65
2022/03/24 09:45:48;;;;;;;;;;;;;;;21.92;37.66;102797.06;7282426;19;153070;-64
2022/03/24 09:48:15;;;;;;;;;;;;;;;21.92;37.48;102791.44;7282050;19;155055;-62
2022/03/24 09:50:45;;;;;;;;;;;;;;;21.90;37.25;102795.63;7280649;19;152741;-65
2022/03/24 09:53:25;;;;;;;;;;;;;;;21.90;37.28;102795.63;7282121;19;154988;-65
2022/03/24 09:55:53;;;;;;;;;;;;;;;21.89;37.27;102794.81;7279349;19;153253;-67
2022/03/24 09:58:24;;;;;;;;;;;;;;;21.89;37.42;102792.00;7279387;19;151742;-66
2022/03/24 10:00:51;;;;;;;;;;;;;;;21.87;37.13;102790.56;7287040;19;152636;-64
2022/03/24 10:03:22;;;;;;;;;;;;;;;21.87;37.54;102782.09;7280408;19;151837;-64
2022/03/24 10:05:55;;;;;;;;;;;;;;;21.87;36.99;102790.56;7280715;19;154791;-67
2022/03/24 10:08:22;;;;;;;;;;;;;;;21.86;37.09;102786.03;7270936;19;157010;-63
2022/03/24 10:10:50;;;;;;;;;;;;;;;21.89;37.11;102788.31;7256896;19;158242;-67
2022/03/24 10:13:25;;;;;;;;;;;;;;;21.90;37.41;102781.56;7270914;19;152441;-63
2022/03/24 10:16:10;;;;;;;;;;;;;;;21.89;37.47;102786.38;7275657;19;152757;-65
2022/03/24 10:18:37;;;;;;;;;;;;;;;21.89;37.55;102791.13;7278841;19;152191;-67
2022/03/24 10:21:14;;;;;;;;;;;;;;;21.87;37.38;102787.75;7278437;19;154800;-65
2022/03/24 10:23:45;;;;;;;;;;;;;;;21.86;37.48;102784.06;7285266;19;153147;-67
2022/03/24 10:26:15;;;;;;;;;;;;;;;21.87;37.43;102782.97;7274439;19;152333;-66
2022/03/24 10:28:54;;;;;;;;;;;;;;;21.86;37.46;102786.88;7277064;19;155462;-65
2022/03/24 10:31:31;;;;;;;;;;;;;;;21.87;37.34;102776.47;7277518;19;152024;-65
2022/03/24 10:33:59;;;;;;;;;;;;;;;21.85;37.72;102788.00;7266935;19;153152;-62
2022/03/24 10:36:26;;;;;;;;;;;;;;;21.81;37.23;102780.38;7276063;19;153751;-66
2022/03/24 10:38:56;;;;;;;;;;;;;;;21.82;36.66;102785.75;7277136;19;151985;-64
2022/03/24 10:41:25;;;;;;;;;;;;;;;21.83;36.42;102780.97;7272336;19;157494;-65
2022/03/24 10:43:54;;;;;;;;;;;;;;;21.83;36.37;102775.34;7265767;19;156794;-64
2022/03/24 10:46:26;;;;;;;;;;;;;;;21.81;36.41;102777.56;7285926;19;153461;-67
2022/03/24 10:49:13;;;;;;;;;;;;;;;21.82;36.06;102779.25;7276423;19;152090;-67
2022/03/24 10:51:43;;;;;;;;;;;;;;;21.80;36.33;102788.00;7277952;19;152278;-64
2022/03/24 10:54:25;;;;;;;;;;;;;;;21.81;35.96;102784.03;7278044;19;152767;-66
2022/03/24 10:56:58;;;;;;;;;;;;;;;21.81;35.59;102786.00;7279703;19;153660;-63
2022/03/24 10:59:35;;;;;;;;;;;;;;;21.82;35.77;102782.06;7275245;19;152357;-67
2022/03/24 11:02:19;;;;;;;;;;;;;;;21.81;36.02;102783.19;7274148;19;155652;-65
2022/03/24 11:04:46;;;;;;;;;;;;;;;21.79;36.01;102783.47;7277357;19;152592;-64
2022/03/24 11:07:23;;;;;;;;;;;;;;;21.80;35.93;102778.72;7278651;19;152120;-67
2022/03/24 11:09:50;;;;;;;;;;;;;;;21.80;35.68;102785.19;7284004;19;152126;-63
2022/03/24 11:12:27;;;;;;;;;;;;;;;21.81;35.47;102783.19;7274112;19;152717;-65
2022/03/24 11:14:55;;;;;;;;;;;;;;;21.80;35.37;102776.75;7274161;19;153770;-62
2022/03/24 11:17:24;;;;;;;;;;;;;;;21.85;35.46;102773.09;7277420;19;153401;-67
2022/03/24 11:20:05;;;;;;;;;;;;;;;21.91;35.72;102772.84;7274424;19;151964;-65
2022/03/24 11:22:35;;;;;;;;;;;;;;;21.95;35.77;102771.22;7276732;19;151807;-64
2022/03/24 11:25:03;;;;;;;;;;;;;;;21.97;35.76;102766.16;7257109;19;158312;-67
2022/03/24 11:27:30;;;;;;;;;;;;;;;22.03;35.93;102773.50;7258679;19;151944;-65
2022/03/24 11:29:58;;;;;;;;;;;;;;;22.06;36.02;102761.69;7277114;19;153375;-64
2022/03/24 11:32:25;;;;;;;;;;;;;;;22.10;35.91;102762.84;7283217;19;153674;-66
2022/03/24 11:34:53;;;;;;;;;;;;;;;22.13;35.66;102765.09;7276978;19;152933;-66
2022/03/24 11:37:20;;;;;;;;;;;;;;;22.16;35.67;102763.72;7273704;19;153384;-64
2022/03/24 11:40:01;;;;;;;;;;;;;;;22.20;35.71;102764.00;7275232;19;152229;-66
2022/03/24 11:42:28;;;;;;;;;;;;;;;22.22;35.80;102756.13;7275440;19;154713;-62
2022/03/24 11:45:01;;;;;;;;;;;;;;;22.26;35.41;102751.66;7277087;19;152355;-65
2022/03/24 11:47:34;;;;;;;;;;;;;;;22.27;35.61;102753.31;7276726;19;152614;-66
2022/03/24 11:50:09;;;;;;;;;;;;;;;22.32;35.86;102758.97;7276783;19;155448;-68
2022/03/24 11:52:36;;;;;;;;;;;;;;;22.35;35.81;102750.81;7282824;19;156122;-64
2022/03/24 11:55:12;;;;;;;;;;;;;;;22.37;35.72;102745.75;7276508;19;153512;-67
2022/03/24 11:57:41;;;;;;;;;;;;;;;22.39;35.46;102743.53;7274402;19;153666;-65
2022/03/24 12:00:15;;;;;;;;;;;;;;;22.42;35.24;102745.78;7273701;19;151783;-69
2022/03/24 12:02:44;;;;;;;;;;;;;;;22.46;35.47;102746.06;7275923;19;155229;-64
2022/03/24 12:05:12;;;;;;;;;;;;;;;22.46;35.87;102730.00;7274069;19;153824;-65
2022/03/24 12:07:39;;;;;;;;;;;;;;;22.48;35.53;102733.41;7277006;19;152029;-67
2022/03/24 12:10:08;;;;;;;;;;;;;;;22.50;35.80;102733.97;7274956;19;152608;-65
2022/03/24 12:12:36;;;;;;;;;;;;;;;22.48;36.21;102729.75;7272015;19;155261;-68
2022/03/24 12:15:11;;;;;;;;;;;;;;;22.48;35.71;102730.59;7278307;19;152780;-63
2022/03/24 12:17:38;;;;;;;;;;;;;;;22.50;35.66;102721.84;7277614;19;154179;-68
2022/03/24 12:20:20;;;;;;;;;;;;;;;22.47;35.86;102720.44;7273858;19;151816;-65
2022/03/24 12:22:47;;;;;;;;;;;;;;;22.48;35.73;102722.16;7276966;19;152798;-66
2022/03/24 12:25:14;;;;;;;;;;;;;;;22.47;35.83;102719.59;7273501;19;156862;-68
2022/03/24 12:27:51;;;;;;;;;;;;;;;22.46;35.96;102715.06;7275771;19;152245;-67
2022/03/24 12:30:18;;;;;;;;;;;;;;;22.44;35.51;102722.97;7270585;19;155102;-64
2022/03/24 12:32:55;;;;;;;;;;;;;;;22.46;35.35;102718.75;7271865;19;154511;-66
2022/03/24 12:35:31;;;;;;;;;;;;;;;22.48;35.51;102721.28;7266796;19;152659;-69
2022/03/24 12:37:58;;;;;;;;;;;;;;;22.46;35.39;102710.28;7275568;19;153654;-67
2022/03/24 12:40:25;;;;;;;;;;;;;;;22.48;34.93;102719.31;7270976;19;153226;-66
2022/03/24 12:42:53;;;;;;;;;;;;;;;22.49;35.19;102715.34;7274457;19;154429;-64